Time;durP1;ratioP1;P1;durP2;ratioP2;P2;SDS_P1;SDS_P2;PMS_P1;PMS_P2;Temp;Humidity;BMP_temperature;BMP_pressure;BME280_temperature;BME280_humidity;BME280_pressure;Samples;Min_cycle;Max_cycle;Signal;HPM_P1;HPM_P2
2022/07/29 00:01:29;;;;;;;0.73;0.38;;;;;;;14.54;92.43;101999.41;5078055;28;20032;-68
2022/07/29 00:03:54;;;;;;;0.47;0.30;;;;;;;14.47;92.93;101984.25;5076710;28;20052;-68
2022/07/29 00:06:20;;;;;;;0.30;0.20;;;;;;;14.56;92.97;101994.00;5077000;28;20419;-68
2022/07/29 00:08:46;;;;;;;0.55;0.32;;;;;;;14.56;93.78;101996.66;5073062;28;20032;-68
2022/07/29 00:11:11;;;;;;;0.63;0.57;;;;;;;14.50;93.93;101982.13;5075813;28;20081;-68
2022/07/29 00:13:37;;;;;;;0.70;0.38;;;;;;;14.57;94.14;101995.69;5073432;28;20024;-68
2022/07/29 00:16:03;;;;;;;1.58;0.50;;;;;;;14.58;93.59;101992.88;5078579;28;20085;-68
2022/07/29 00:18:28;;;;;;;1.67;1.58;;;;;;;14.56;94.02;101989.53;5072693;28;20058;-68
2022/07/29 00:20:54;;;;;;;1.48;0.55;;;;;;;14.58;93.37;101986.72;5078545;28;20480;-69
2022/07/29 00:23:19;;;;;;;2.60;0.68;;;;;;;14.62;93.47;101988.09;5074447;28;20055;-68
2022/07/29 00:25:44;;;;;;;0.98;0.38;;;;;;;14.65;93.27;101987.78;5077328;28;20073;-69
2022/07/29 00:28:10;;;;;;;0.57;0.40;;;;;;;14.68;92.98;101986.69;5075527;28;20068;-69
2022/07/29 00:30:35;;;;;;;3.25;0.60;;;;;;;14.68;93.10;101987.50;5073984;28;20543;-68
2022/07/29 00:33:00;;;;;;;2.88;0.45;;;;;;;14.64;93.41;101991.44;5076329;28;20437;-68
2022/07/29 00:35:44;;;;;;;1.08;0.30;;;;;;;14.61;93.00;101978.44;5072760;28;20603;-69
2022/07/29 00:38:14;;;;;;;0.70;0.52;;;;;;;14.67;92.70;101987.66;5072115;28;20036;-68
2022/07/29 00:40:40;;;;;;;7.25;1.40;;;;;;;14.71;92.98;101986.38;5076083;28;20055;-68
2022/07/29 00:43:06;;;;;;;3.30;1.38;;;;;;;14.71;92.58;101971.25;5075978;28;20048;-68
2022/07/29 00:45:32;;;;;;;1.17;0.77;;;;;;;14.65;92.59;101969.19;5074592;28;20090;-68
2022/07/29 00:47:58;;;;;;;3.30;1.40;;;;;;;14.77;92.39;101980.47;5073251;28;20028;-68
2022/07/29 00:50:23;;;;;;;3.42;1.85;;;;;;;14.77;92.29;101978.63;5075035;28;20046;-69
2022/07/29 00:52:50;;;;;;;3.30;1.52;;;;;;;14.77;91.74;101968.00;5072395;28;20040;-68
2022/07/29 00:55:16;;;;;;;6.25;1.83;;;;;;;14.76;92.07;101969.00;5076671;28;20116;-68
2022/07/29 00:57:42;;;;;;;1.60;0.98;;;;;;;14.77;91.56;101960.03;5074653;28;20032;-68
2022/07/29 01:00:11;;;;;;;5.75;1.67;;;;;;;14.82;90.96;101964.91;5074826;28;20452;-68
2022/07/29 01:02:37;;;;;;;1.83;0.90;;;;;;;14.81;90.84;101958.75;5074395;28;20119;-68
2022/07/29 01:05:04;;;;;;;3.10;1.08;;;;;;;14.81;91.53;101956.09;5074489;28;20131;-68
2022/07/29 01:07:32;;;;;;;4.57;1.00;;;;;;;14.78;91.86;101961.69;5072240;28;20038;-68
2022/07/29 01:09:58;;;;;;;2.03;0.80;;;;;;;14.76;91.64;101955.72;5073507;28;20032;-68
2022/07/29 01:12:26;;;;;;;1.00;0.60;;;;;;;14.76;92.08;101947.75;5074159;28;20085;-69
2022/07/29 01:14:53;;;;;;;0.63;0.43;;;;;;;14.77;91.24;101944.09;5076586;28;20024;-68
2022/07/29 01:17:26;;;;;;;0.82;0.50;;;;;;;14.78;91.42;101942.25;5077028;28;20385;-69
2022/07/29 01:20:07;;;;;;;0.57;0.45;;;;;;;14.77;90.93;101935.28;5072861;28;20016;-69
2022/07/29 01:23:00;;;;;;;2.05;0.57;;;;;;;14.79;90.72;101942.13;5061284;28;20119;-69
2022/07/29 01:25:38;;;;;;;0.57;0.50;;;;;;;14.82;91.12;101940.97;5069319;28;20040;-69
2022/07/29 01:28:41;;;;;;;0.75;0.43;;;;;;;14.80;90.46;101935.81;5073468;28;20034;-68
2022/07/29 01:31:09;;;;;;;0.50;0.47;;;;;;;14.80;90.13;101935.81;5073374;28;20032;-68
2022/07/29 01:33:50;;;;;;;0.98;0.40;;;;;;;14.82;90.78;101933.84;5080569;28;20024;-69
2022/07/29 01:36:22;;;;;;;1.45;0.65;;;;;;;14.81;91.48;101926.84;5076289;28;20024;-68
2022/07/29 01:38:57;;;;;;;0.90;0.55;;;;;;;14.72;91.54;101916.28;5071403;28;20031;-68
2022/07/29 01:41:24;;;;;;;0.28;0.20;;;;;;;14.75;90.92;101927.47;5074187;28;20033;-68
2022/07/29 01:44:01;;;;;;;2.75;0.30;;;;;;;14.72;91.12;101917.16;5077189;28;20131;-69
2022/07/29 01:46:33;;;;;;;2.35;0.50;;;;;;;14.70;91.63;101921.78;5073532;28;20031;-69
2022/07/29 01:49:05;;;;;;;2.38;0.60;;;;;;;14.64;91.86;101919.72;5077028;28;20033;-68
2022/07/29 01:51:54;;;;;;;1.85;0.82;;;;;;;14.64;91.96;101919.72;5072293;28;20020;-68
2022/07/29 01:54:42;;;;;;;1.13;0.70;;;;;;;14.66;92.22;101919.56;5078176;28;20043;-69
2022/07/29 01:57:10;;;;;;;0.63;0.40;;;;;;;14.72;91.26;101924.25;5073005;28;20016;-68
2022/07/29 01:59:37;;;;;;;1.70;0.17;;;;;;;14.73;91.61;101905.50;5070378;28;20025;-68
2022/07/29 02:02:03;;;;;;;1.25;0.50;;;;;;;14.73;91.94;101912.66;5073539;28;20051;-68
2022/07/29 02:04:33;;;;;;;0.82;0.38;;;;;;;14.69;92.11;101913.94;5074490;28;20048;-68
2022/07/29 02:07:02;;;;;;;0.57;0.35;;;;;;;14.70;92.18;101897.84;5079106;28;20024;-69
2022/07/29 02:09:30;;;;;;;0.55;0.38;;;;;;;14.71;91.97;101904.81;5075058;28;20031;-69
2022/07/29 02:11:57;;;;;;;1.98;0.80;;;;;;;14.60;92.19;101892.59;5075538;28;20416;-69
2022/07/29 02:14:23;;;;;;;1.73;0.60;;;;;;;14.64;92.13;101898.47;5080700;28;20024;-68
2022/07/29 02:16:53;;;;;;;2.05;0.75;;;;;;;14.64;91.83;101890.47;5077666;28;20115;-68
2022/07/29 02:19:22;;;;;;;1.20;0.60;;;;;;;14.55;91.83;101886.91;5078786;28;20016;-68
2022/07/29 02:21:48;;;;;;;3.60;0.57;;;;;;;14.63;91.88;101888.81;5077977;28;20035;-68
2022/07/29 02:24:17;;;;;;;0.57;0.50;;;;;;;14.59;92.56;101892.78;5077551;28;20052;-68
2022/07/29 02:26:43;;;;;;;14.38;1.00;;;;;;;14.58;92.07;101885.78;5074409;28;20020;-69
2022/07/29 02:29:12;;;;;;;0.88;0.30;;;;;;;14.41;92.05;101855.50;5081419;28;20488;-68
2022/07/29 02:31:39;;;;;;;0.90;0.43;;;;;;;14.51;92.22;101872.22;5076955;28;20043;-68
2022/07/29 02:34:08;;;;;;;0.95;0.77;;;;;;;14.60;91.79;101878.50;5078530;28;20031;-68
2022/07/29 02:36:34;;;;;;;0.70;0.32;;;;;;;14.58;91.79;101875.16;5078427;28;20023;-69
2022/07/29 02:39:03;;;;;;;4.07;0.90;;;;;;;14.46;91.16;101849.75;5078085;28;20024;-68
2022/07/29 02:41:43;;;;;;;1.58;0.70;;;;;;;14.57;91.33;101873.50;5082955;28;20103;-68
2022/07/29 02:44:12;;;;;;;1.40;0.32;;;;;;;14.59;91.51;101876.84;5075991;28;20020;-68
2022/07/29 02:46:44;;;;;;;0.93;0.82;;;;;;;14.58;91.43;101869.84;5075537;28;20540;-68
2022/07/29 02:49:12;;;;;;;1.35;0.45;;;;;;;14.38;91.39;101847.84;5078218;28;20099;-69
2022/07/29 02:51:58;;;;;;;0.45;0.43;;;;;;;14.39;91.95;101853.03;5077022;28;20112;-69
2022/07/29 02:54:37;;;;;;;0.93;0.50;;;;;;;14.54;92.29;101871.09;5081498;28;20089;-68
2022/07/29 02:57:10;;;;;;;1.67;0.57;;;;;;;14.53;91.87;101872.91;5077750;28;20369;-68
2022/07/29 02:59:38;;;;;;;2.72;0.57;;;;;;;14.52;91.96;101868.56;5074710;28;20091;-68
2022/07/29 03:02:06;;;;;;;0.95;0.63;;;;;;;14.54;91.78;101873.75;5075387;28;20030;-68
2022/07/29 03:04:34;;;;;;;0.60;0.47;;;;;;;14.51;91.65;101874.88;5074509;28;20036;-68
2022/07/29 03:07:00;;;;;;;1.05;0.57;;;;;;;14.51;91.57;101864.25;5079482;28;20532;-68
2022/07/29 03:09:27;;;;;;;0.80;0.77;;;;;;;14.51;91.89;101861.59;5079657;28;20110;-68
2022/07/29 03:11:54;;;;;;;0.77;0.45;;;;;;;14.47;91.63;101862.06;5075187;28;20524;-68
2022/07/29 03:14:20;;;;;;;0.22;0.17;;;;;;;14.46;91.89;101852.41;5077139;28;20104;-68
2022/07/29 03:16:46;;;;;;;1.38;0.57;;;;;;;14.50;91.70;101849.31;5077618;28;20075;-68
2022/07/29 03:19:12;;;;;;;0.60;0.52;;;;;;;14.40;91.46;101836.09;5077142;28;20453;-68
2022/07/29 03:21:38;;;;;;;0.57;0.43;;;;;;;14.46;92.08;101845.28;5078776;28;20463;-68
2022/07/29 03:24:04;;;;;;;3.10;0.63;;;;;;;14.45;92.34;101837.47;5079986;28;20048;-68
2022/07/29 03:26:29;;;;;;;0.65;0.38;;;;;;;14.44;92.09;101846.41;5076713;28;20104;-68
2022/07/29 03:28:55;;;;;;;1.08;0.68;;;;;;;14.47;91.91;101843.47;5078162;28;20059;-69
2022/07/29 03:31:20;;;;;;;4.38;0.75;;;;;;;14.44;91.85;101846.41;5077351;28;20056;-68
2022/07/29 03:33:46;;;;;;;2.10;0.95;;;;;;;14.30;91.60;101832.66;5075256;28;20115;-68
2022/07/29 03:36:11;;;;;;;4.47;1.30;;;;;;;14.38;91.57;101843.38;5078904;28;20086;-68
2022/07/29 03:38:37;;;;;;;1.42;1.08;;;;;;;14.34;92.14;101830.56;5081221;28;20025;-68
2022/07/29 03:41:08;;;;;;;2.28;0.82;;;;;;;14.32;92.05;101827.22;5079408;28;21088;-69
2022/07/29 03:43:37;;;;;;;0.40;0.38;;;;;;;14.29;92.20;101833.66;5077573;28;20488;-68
2022/07/29 03:46:04;;;;;;;2.88;0.60;;;;;;;14.36;91.95;101845.34;5074974;28;20487;-68
2022/07/29 03:48:35;;;;;;;1.65;0.40;;;;;;;14.42;92.02;101843.09;5078477;28;20051;-68
2022/07/29 03:51:01;;;;;;;0.52;0.40;;;;;;;14.36;91.63;101839.19;5077745;28;20024;-69
2022/07/29 03:53:26;;;;;;;0.35;0.25;;;;;;;14.43;91.69;101840.25;5070907;28;20031;-69
2022/07/29 03:55:58;;;;;;;0.75;0.43;;;;;;;14.37;92.14;101839.06;5078637;28;20775;-69
2022/07/29 03:58:26;;;;;;;2.33;0.50;;;;;;;14.42;91.76;101837.78;5075903;28;20024;-68
2022/07/29 04:00:53;;;;;;;4.50;0.68;;;;;;;14.37;92.16;101836.41;5076088;28;20028;-68
2022/07/29 04:03:19;;;;;;;0.43;0.30;;;;;;;14.37;92.33;101835.56;5075883;28;20024;-68
2022/07/29 04:05:44;;;;;;;0.98;0.50;;;;;;;14.39;92.54;101845.06;5075046;28;20036;-68
2022/07/29 04:08:09;;;;;;;0.45;0.30;;;;;;;14.39;92.86;101839.75;5081889;28;20028;-71
2022/07/29 04:10:35;;;;;;;0.68;0.38;;;;;;;14.44;92.53;101835.78;5076691;28;20074;-69
2022/07/29 04:13:00;;;;;;;1.40;0.65;;;;;;;14.27;91.88;101814.38;5077051;28;20058;-69
2022/07/29 04:15:28;;;;;;;0.22;0.22;;;;;;;14.44;92.24;101838.44;5058057;28;20479;-69
2022/07/29 04:17:54;;;;;;;1.58;0.93;;;;;;;14.47;92.54;101824.88;5074486;28;20028;-69
2022/07/29 04:20:19;;;;;;;0.57;0.40;;;;;;;14.47;92.13;101820.38;5072513;28;20036;-69
2022/07/29 04:22:44;;;;;;;2.35;0.82;;;;;;;14.47;92.11;101831.00;5077712;28;20202;-69
2022/07/29 04:25:10;;;;;;;2.90;0.40;;;;;;;14.40;92.26;101822.81;5076566;28;20044;-69
2022/07/29 04:27:35;;;;;;;0.82;0.82;;;;;;;14.49;92.40;101822.91;5078895;28;20042;-69
2022/07/29 04:30:01;;;;;;;1.65;0.65;;;;;;;14.55;92.30;101827.63;5076139;28;20138;-68
2022/07/29 04:32:26;;;;;;;0.57;0.32;;;;;;;14.56;91.89;101827.47;5078059;28;20046;-69
2022/07/29 04:34:52;;;;;;;2.20;0.40;;;;;;;14.63;91.12;101827.69;5063625;28;20020;-70
2022/07/29 04:37:18;;;;;;;2.13;0.68;;;;;;;14.57;91.98;101831.81;5073443;28;20044;-69
2022/07/29 04:39:43;;;;;;;1.05;0.60;;;;;;;14.59;92.08;101831.66;5074057;28;20440;-69
2022/07/29 04:42:09;;;;;;;0.75;0.50;;;;;;;14.64;91.66;101821.41;5078463;28;20123;-68
2022/07/29 04:44:34;;;;;;;0.95;0.70;;;;;;;14.71;91.53;101827.78;5069464;28;20025;-70
2022/07/29 04:46:59;;;;;;;0.73;0.40;;;;;;;14.74;90.73;101830.13;5079659;28;20024;-68
2022/07/29 04:49:25;;;;;;;1.63;0.45;;;;;;;14.80;90.74;101829.50;5070803;28;20032;-68
2022/07/29 04:51:50;;;;;;;2.80;1.08;;;;;;;14.63;90.34;101800.28;5075158;28;20034;-69
2022/07/29 04:54:15;;;;;;;1.02;0.70;;;;;;;14.75;91.00;101829.13;5078393;28;20145;-69
2022/07/29 04:56:41;;;;;;;1.42;0.65;;;;;;;14.77;91.33;101835.13;5068929;28;20416;-69
2022/07/29 04:59:07;;;;;;;1.10;0.82;;;;;;;14.89;90.57;101824.25;5071063;28;20028;-69
2022/07/29 05:01:32;;;;;;;1.25;0.73;;;;;;;14.82;90.40;101824.88;5075649;28;20036;-69
2022/07/29 05:03:57;;;;;;;0.90;0.70;;;;;;;14.67;90.79;101814.94;5073132;28;20035;-69
2022/07/29 05:06:23;;;;;;;0.82;0.50;;;;;;;14.64;90.51;101805.47;5080157;28;20028;-69
2022/07/29 05:08:48;;;;;;;0.98;0.60;;;;;;;14.84;90.51;101823.91;5074611;28;20095;-69
2022/07/29 05:11:13;;;;;;;3.30;0.63;;;;;;;14.93;89.91;101822.97;5076228;28;20427;-69
2022/07/29 05:13:39;;;;;;;2.00;0.60;;;;;;;14.96;89.38;101826.16;5076474;28;20024;-69
2022/07/29 05:16:05;;;;;;;1.65;0.73;;;;;;;14.86;89.64;101805.97;5078400;28;20115;-69
2022/07/29 05:18:30;;;;;;;0.80;0.70;;;;;;;14.96;89.94;101825.28;5075707;28;20051;-69
2022/07/29 05:20:56;;;;;;;4.30;0.60;;;;;;;14.85;89.78;101817.56;5080571;28;20050;-69
2022/07/29 05:23:21;;;;;;;2.25;0.70;;;;;;;14.94;89.37;101811.34;5071387;28;20024;-69
2022/07/29 05:25:46;;;;;;;0.40;0.30;;;;;;;15.10;88.62;101822.09;5071716;28;20036;-70
2022/07/29 05:28:12;;;;;;;3.95;0.40;;;;;;;15.14;88.65;101820.78;5071267;28;20393;-69
2022/07/29 05:30:38;;;;;;;7.90;0.75;;;;;;;15.17;87.97;101819.63;5066650;28;20032;-69
2022/07/29 05:33:03;;;;;;;0.60;0.43;;;;;;;15.10;87.59;101818.59;5070060;28;20047;-69
2022/07/29 05:35:28;;;;;;;0.55;0.30;;;;;;;15.16;87.79;101825.97;5066361;28;20107;-69
2022/07/29 05:37:54;;;;;;;0.85;0.57;;;;;;;15.16;87.63;101813.50;5067314;28;20024;-69
2022/07/29 05:40:20;;;;;;;0.77;0.30;;;;;;;15.22;87.24;101804.03;5072791;28;20360;-69
2022/07/29 05:42:45;;;;;;;1.02;0.50;;;;;;;15.16;87.56;101810.84;5070547;28;20519;-69
2022/07/29 05:45:11;;;;;;;0.90;0.57;;;;;;;15.39;86.84;101805.78;5073332;28;20542;-69
2022/07/29 05:47:36;;;;;;;1.95;0.63;;;;;;;15.48;86.62;101803.19;5074134;28;20038;-69
2022/07/29 05:50:01;;;;;;;1.27;0.65;;;;;;;15.34;86.05;101792.16;5070800;28;20391;-69
2022/07/29 05:52:27;;;;;;;2.60;0.55;;;;;;;15.52;85.94;101815.19;5072987;28;20035;-69
2022/07/29 05:54:52;;;;;;;1.98;1.33;;;;;;;15.61;85.97;101815.06;5071393;28;20055;-69
2022/07/29 05:57:22;;;;;;;0.68;0.50;;;;;;;15.59;85.86;101818.88;5076337;28;20570;-69
2022/07/29 05:59:49;;;;;;;0.90;0.60;;;;;;;15.64;85.48;101820.06;5075745;28;20050;-71
2022/07/29 06:02:15;;;;;;;1.38;0.47;;;;;;;15.76;85.75;101806.50;5074650;28;20032;-69
2022/07/29 06:04:40;;;;;;;3.97;1.05;;;;;;;15.74;84.65;101800.50;5068342;28;20644;-69
2022/07/29 06:07:06;;;;;;;0.63;0.38;;;;;;;15.94;84.47;101809.91;5071483;28;20059;-69
2022/07/29 06:09:33;;;;;;;0.90;0.45;;;;;;;16.16;83.59;101815.63;5071027;28;20484;-69
2022/07/29 06:11:58;;;;;;;0.98;0.68;;;;;;;16.17;83.70;101806.63;5073964;28;20024;-69
2022/07/29 06:14:24;;;;;;;3.30;0.68;;;;;;;16.04;82.42;101794.59;5073100;28;20542;-69
2022/07/29 06:16:50;;;;;;;2.47;0.60;;;;;;;16.22;82.74;101806.97;5068410;28;20380;-69
2022/07/29 06:19:15;;;;;;;0.90;0.52;;;;;;;16.16;82.44;101791.66;5071743;28;20027;-69
2022/07/29 06:21:42;;;;;;;4.43;0.70;;;;;;;16.25;81.84;101815.47;5052579;28;20031;-69
2022/07/29 06:24:08;;;;;;;1.92;0.60;;;;;;;16.32;81.75;101807.66;5071514;28;20040;-68
2022/07/29 06:26:33;;;;;;;0.88;0.40;;;;;;;16.40;81.24;101821.00;5072423;28;20080;-69
2022/07/29 06:28:58;;;;;;;0.22;0.20;;;;;;;16.47;80.32;101818.50;5068410;28;20017;-69
2022/07/29 06:31:24;;;;;;;1.00;0.55;;;;;;;16.57;80.21;101813.84;5074605;28;20021;-69
2022/07/29 06:33:49;;;;;;;0.93;0.60;;;;;;;16.80;79.42;101822.03;5071709;28;20418;-69
2022/07/29 06:36:15;;;;;;;0.90;0.60;;;;;;;16.85;79.04;101819.72;5070002;28;20111;-69
2022/07/29 06:38:40;;;;;;;1.02;0.40;;;;;;;16.73;79.74;101817.50;5070785;28;20028;-69
2022/07/29 06:41:11;;;;;;;1.08;0.70;;;;;;;16.92;79.02;101822.53;5052136;28;20086;-69
2022/07/29 06:43:41;;;;;;;2.00;0.90;;;;;;;16.56;78.81;101830.81;5063314;28;20029;-69
2022/07/29 06:46:11;;;;;;;1.58;0.57;;;;;;;16.61;79.08;101825.00;5070610;28;20065;-69
2022/07/29 06:48:38;;;;;;;1.10;0.63;;;;;;;16.80;79.10;101830.03;5061348;28;20017;-70
2022/07/29 06:51:05;;;;;;;1.25;0.38;;;;;;;17.02;78.57;101841.00;5068333;28;20051;-69
2022/07/29 06:53:32;;;;;;;0.70;0.50;;;;;;;17.35;78.38;101846.28;5067662;28;20566;-69
2022/07/29 06:55:59;;;;;;;1.33;0.63;;;;;;;17.43;77.21;101830.28;5068559;28;20036;-70
2022/07/29 06:58:26;;;;;;;0.95;0.52;;;;;;;17.39;77.51;101836.94;5066424;28;20028;-70
2022/07/29 07:00:52;;;;;;;0.80;0.47;;;;;;;17.84;77.34;101830.16;5065350;28;20492;-69
2022/07/29 07:03:18;;;;;;;0.40;0.30;;;;;;;18.02;75.97;101833.41;5064560;28;20029;-69
2022/07/29 07:05:44;;;;;;;1.08;0.60;;;;;;;17.69;75.61;101822.84;5053195;28;20028;-69
2022/07/29 07:08:09;;;;;;;2.45;0.52;;;;;;;17.77;76.12;101842.50;5045688;28;20032;-69
2022/07/29 07:10:35;;;;;;;1.10;0.70;;;;;;;17.96;75.93;101839.44;5065568;28;20504;-70
2022/07/29 07:13:01;;;;;;;2.88;0.60;;;;;;;17.52;75.52;101847.09;5064710;28;20044;-70
2022/07/29 07:15:27;;;;;;;1.67;0.70;;;;;;;17.77;76.31;101853.16;5063843;28;20111;-70
2022/07/29 07:17:53;;;;;;;4.18;0.77;;;;;;;17.87;74.36;101840.47;5065884;28;20070;-70
2022/07/29 07:20:18;;;;;;;0.70;0.40;;;;;;;18.11;75.55;101836.03;5063738;28;20500;-70
2022/07/29 07:22:44;;;;;;;2.40;0.82;;;;;;;18.35;73.97;101827.84;5063197;28;20031;-70
2022/07/29 07:25:10;;;;;;;1.13;0.70;;;;;;;18.48;73.33;101844.13;5061683;28;20040;-70
2022/07/29 07:27:37;;;;;;;3.53;0.75;;;;;;;18.62;73.21;101849.75;5064011;28;20032;-69
2022/07/29 07:30:06;;;;;;;1.60;1.17;;;;;;;18.79;72.96;101851.31;5064276;28;20028;-69
2022/07/29 07:32:35;;;;;;;1.65;0.77;;;;;;;19.42;71.99;101845.66;5068626;28;20062;-70
2022/07/29 07:35:01;;;;;;;0.77;0.40;;;;;;;19.74;69.77;101831.09;5065081;28;20044;-70
2022/07/29 07:37:26;;;;;;;1.70;0.47;;;;;;;19.57;69.82;101848.34;5060811;28;20065;-70
2022/07/29 07:39:52;;;;;;;0.95;0.52;;;;;;;19.01;72.04;101838.03;5067297;28;20063;-69
2022/07/29 07:42:18;;;;;;;5.28;0.80;;;;;;;19.26;72.61;101846.69;5069070;28;20047;-71
2022/07/29 07:44:45;;;;;;;2.08;1.02;;;;;;;19.39;71.37;101843.38;5065807;28;20020;-70
2022/07/29 07:47:12;;;;;;;1.17;0.60;;;;;;;19.67;70.29;101849.72;5061873;28;20392;-70
2022/07/29 07:49:37;;;;;;;1.70;0.85;;;;;;;19.87;69.85;101838.47;5067793;28;20347;-70
2022/07/29 07:52:03;;;;;;;2.30;0.60;;;;;;;19.79;69.30;101841.25;5064670;28;20028;-70
2022/07/29 07:54:28;;;;;;;3.53;1.25;;;;;;;19.85;69.45;101841.34;5067586;28;20025;-70
2022/07/29 07:56:53;;;;;;;3.78;1.15;;;;;;;19.44;70.69;101840.97;5065785;28;20032;-70
2022/07/29 07:59:19;;;;;;;1.23;0.73;;;;;;;19.24;70.65;101841.50;5068359;28;20050;-69
2022/07/29 08:01:44;;;;;;;1.05;0.50;;;;;;;19.10;71.74;101836.97;5066307;28;20036;-69
2022/07/29 08:04:10;;;;;;;1.80;0.77;;;;;;;19.11;71.80;101838.63;5064157;28;20032;-70
2022/07/29 08:06:36;;;;;;;2.08;0.65;;;;;;;19.05;71.22;101839.34;5069401;28;20024;-70
2022/07/29 08:09:03;;;;;;;1.30;0.40;;;;;;;18.79;72.13;101831.72;5066994;28;20032;-70
2022/07/29 08:11:29;;;;;;;1.00;0.70;;;;;;;19.02;71.73;101845.91;5071820;28;20397;-70
2022/07/29 08:13:54;;;;;;;6.00;2.33;;;;;;;18.88;70.58;101838.69;5066190;28;20028;-70
2022/07/29 08:16:20;;;;;;;2.15;1.00;;;;;;;18.75;71.35;101844.63;5067014;28;20043;-69
2022/07/29 08:18:46;;;;;;;0.82;0.50;;;;;;;18.75;71.33;101847.28;5068734;28;20442;-69
2022/07/29 08:21:12;;;;;;;1.27;0.77;;;;;;;18.86;72.41;101841.53;5067316;28;20591;-69
2022/07/29 08:23:38;;;;;;;1.27;0.80;;;;;;;18.78;73.52;101844.28;5062665;28;20519;-69
2022/07/29 08:26:10;;;;;;;2.30;1.00;;;;;;;18.97;72.10;101847.47;5065494;28;20032;-70
2022/07/29 08:28:39;;;;;;;1.73;0.70;;;;;;;18.89;72.13;101841.16;5068091;28;20024;-70
2022/07/29 08:31:05;;;;;;;2.83;0.80;;;;;;;19.04;71.61;101837.69;5069322;28;20023;-70
2022/07/29 08:33:32;;;;;;;1.75;0.80;;;;;;;19.17;72.17;101843.25;5065041;28;20032;-70
2022/07/29 08:35:57;;;;;;;0.90;0.52;;;;;;;19.24;71.99;101843.34;5067747;28;20035;-69
2022/07/29 08:38:22;;;;;;;1.02;0.70;;;;;;;19.77;70.86;101838.75;5069003;28;20029;-69
2022/07/29 08:40:48;;;;;;;2.00;0.60;;;;;;;19.96;69.37;101840.03;5067481;28;20024;-69
2022/07/29 08:43:14;;;;;;;1.08;0.85;;;;;;;20.37;69.08;101828.72;5070516;28;20028;-70
2022/07/29 08:45:45;;;;;;;2.05;0.55;;;;;;;20.72;66.74;101834.25;5062434;28;20386;-69
2022/07/29 08:48:19;;;;;;;1.52;0.98;;;;;;;20.93;65.07;101839.56;5065140;28;20035;-70
2022/07/29 08:50:46;;;;;;;2.20;0.75;;;;;;;21.13;65.13;101837.03;5065273;28;20078;-70
2022/07/29 08:53:15;;;;;;;1.50;0.90;;;;;;;21.05;64.49;101836.34;5069274;28;20035;-69
2022/07/29 08:55:49;;;;;;;1.13;0.60;;;;;;;21.63;62.71;101846.88;5071514;28;20028;-69
2022/07/29 08:58:15;;;;;;;1.23;0.63;;;;;;;21.42;64.17;101848.59;5069246;28;20997;-70
2022/07/29 09:00:43;;;;;;;2.28;0.52;;;;;;;21.36;63.51;101850.22;5068992;28;20028;-70
2022/07/29 09:03:12;;;;;;;2.08;0.80;;;;;;;21.08;63.84;101841.34;5078040;28;20029;-70
2022/07/29 09:05:41;;;;;;;1.00;0.73;;;;;;;20.77;64.13;101845.22;5078128;28;20384;-69
2022/07/29 09:08:07;;;;;;;2.25;1.00;;;;;;;20.64;64.18;101837.03;5072161;28;20252;-70
2022/07/29 09:10:35;;;;;;;4.03;1.02;;;;;;;20.80;64.61;101839.47;5081189;28;20047;-70
2022/07/29 09:13:00;;;;;;;2.38;0.95;;;;;;;21.21;62.97;101838.75;5076253;28;20387;-70
2022/07/29 09:15:26;;;;;;;3.42;0.80;;;;;;;20.77;63.47;101828.28;5073679;28;20025;-70
2022/07/29 09:17:51;;;;;;;3.40;1.65;;;;;;;20.75;65.62;101840.06;5077112;28;20032;-69
2022/07/29 09:20:19;;;;;;;1.35;0.70;;;;;;;20.74;65.63;101832.19;5069839;28;20031;-69
2022/07/29 09:22:49;;;;;;;1.88;0.85;;;;;;;20.98;65.13;101830.94;5075334;28;20528;-69
2022/07/29 09:25:35;;;;;;;2.17;0.95;;;;;;;20.88;65.02;101799.09;5075861;28;20103;-69
2022/07/29 09:28:11;;;;;;;0.80;0.50;;;;;;;21.29;63.36;101827.00;5070393;28;20027;-69
2022/07/29 09:30:57;;;;;;;1.45;0.70;;;;;;;21.54;63.12;101824.72;5064773;28;20040;-70
2022/07/29 09:33:24;;;;;;;0.88;0.63;;;;;;;21.23;62.65;101833.16;5074821;28;20027;-70
2022/07/29 09:36:06;;;;;;;2.97;1.15;;;;;;;20.79;63.20;101827.06;5070870;28;20038;-69
2022/07/29 09:38:33;;;;;;;2.55;0.68;;;;;;;20.86;65.58;101822.59;5073258;28;20028;-69
2022/07/29 09:41:00;;;;;;;1.15;0.40;;;;;;;21.10;64.90;101831.22;5069969;28;20568;-69
2022/07/29 09:43:26;;;;;;;2.00;0.75;;;;;;;21.06;64.20;101827.28;5073678;28;20468;-69
2022/07/29 09:45:51;;;;;;;8.90;2.25;;;;;;;21.07;64.02;101827.06;5073673;28;20035;-69
2022/07/29 09:48:20;;;;;;;2.97;0.65;;;;;;;21.31;63.93;101836.53;5065366;28;20107;-69
2022/07/29 09:50:48;;;;;;;3.22;0.68;;;;;;;21.07;65.28;101834.31;5067117;28;20071;-69
2022/07/29 09:53:33;;;;;;;1.40;0.85;;;;;;;20.84;64.48;101827.34;5064885;28;20033;-70
2022/07/29 09:55:59;;;;;;;3.88;1.00;;;;;;;20.45;66.40;101830.47;5070570;28;20047;-70
2022/07/29 09:58:24;;;;;;;3.55;1.33;;;;;;;20.54;66.76;101823.94;5071420;28;20123;-70
2022/07/29 10:00:52;;;;;;;2.67;1.05;;;;;;;20.50;65.82;101826.16;5067169;28;20117;-70
2022/07/29 10:03:18;;;;;;;1.10;0.70;;;;;;;20.53;66.12;101827.63;5068954;28;20027;-69
2022/07/29 10:05:45;;;;;;;1.88;1.00;;;;;;;20.58;66.16;101819.03;5072266;28;20046;-69
2022/07/29 10:08:12;;;;;;;1.33;0.77;;;;;;;20.61;66.78;101822.19;5074049;28;20695;-70
2022/07/29 10:10:40;;;;;;;2.03;0.50;;;;;;;20.95;67.28;101821.44;5079362;28;20024;-71
2022/07/29 10:13:09;;;;;;;2.50;0.75;;;;;;;21.06;66.37;101824.59;5069518;28;20029;-69
2022/07/29 10:15:38;;;;;;;1.20;0.52;;;;;;;20.84;67.64;101823.78;5072251;28;20016;-70
2022/07/29 10:18:04;;;;;;;3.40;0.93;;;;;;;20.96;66.84;101817.72;5066154;28;20056;-69
2022/07/29 10:20:30;;;;;;;2.20;1.20;;;;;;;20.87;67.62;101818.06;5067855;28;20051;-69
2022/07/29 10:22:56;;;;;;;3.38;1.02;;;;;;;20.69;67.56;101822.03;5066589;28;20033;-69
2022/07/29 10:25:22;;;;;;;3.13;0.70;;;;;;;20.64;68.41;101818.28;5064819;28;20070;-69
2022/07/29 10:27:48;;;;;;;1.38;0.80;;;;;;;21.12;67.46;101827.34;5048842;28;20473;-69
2022/07/29 10:30:16;;;;;;;2.28;1.00;;;;;;;21.17;66.58;101816.00;5076478;28;20119;-70
2022/07/29 10:32:53;;;;;;;3.22;0.70;;;;;;;21.13;65.23;101825.47;5079047;28;20027;-71
2022/07/29 10:35:35;;;;;;;1.15;0.47;;;;;;;21.28;65.18;101820.81;5079689;28;20090;-70
2022/07/29 10:38:34;;;;;;;1.83;0.90;;;;;;;21.15;64.50;101815.38;5072123;28;20029;-69
2022/07/29 10:41:27;;;;;;;1.88;0.90;;;;;;;20.75;65.57;101815.91;5080556;28;20032;-69
2022/07/29 10:44:02;;;;;;;1.08;0.93;;;;;;;20.82;66.25;101807.91;5080247;28;20028;-69
2022/07/29 10:46:34;;;;;;;2.78;1.23;;;;;;;20.98;67.42;101819.38;5081750;28;20027;-69
2022/07/29 10:49:22;;;;;;;1.70;1.00;;;;;;;21.11;68.45;101817.59;5084411;28;20028;-69
2022/07/29 10:51:50;;;;;;;2.92;0.90;;;;;;;21.48;67.14;101820.97;5075887;28;20029;-69
2022/07/29 10:54:44;;;;;;;3.83;0.80;;;;;;;21.71;67.76;101809.06;5082859;28;20028;-69
2022/07/29 10:57:19;;;;;;;1.30;0.82;;;;;;;22.04;65.83;101806.50;5072340;28;20378;-69
2022/07/29 10:59:45;;;;;;;2.40;0.93;;;;;;;21.97;64.61;101805.66;5078933;28;20039;-71
2022/07/29 11:02:50;;;;;;;2.42;1.30;;;;;;;21.91;66.23;101807.31;5070909;28;20093;-70
2022/07/29 11:05:19;;;;;;;0.90;0.70;;;;;;;21.87;65.37;101814.09;5005502;28;20038;-70
2022/07/29 11:08:23;;;;;;;2.00;0.77;;;;;;;22.12;65.39;101817.09;5002082;28;20072;-70
2022/07/29 11:11:13;;;;;;;2.03;1.25;;;;;;;21.97;63.99;101817.25;4967051;28;20054;-70
2022/07/29 11:13:49;;;;;;;1.80;0.80;;;;;;;22.17;63.75;101803.03;4969160;28;20034;-70
2022/07/29 11:16:16;;;;;;;4.15;1.08;;;;;;;22.23;63.76;101806.78;4969690;28;20035;-70
2022/07/29 11:19:10;;;;;;;2.33;1.00;;;;;;;22.62;64.72;101815.94;4967371;28;20585;-70
2022/07/29 11:21:37;;;;;;;3.30;1.23;;;;;;;22.62;63.51;101800.59;4962376;28;20495;-72
2022/07/29 11:24:15;;;;;;;3.85;0.80;;;;;;;22.83;63.84;101802.28;4968122;28;20535;-70
2022/07/29 11:26:41;;;;;;;1.90;0.70;;;;;;;23.19;63.25;101812.59;4967950;28;20141;-70
2022/07/29 11:29:18;;;;;;;2.85;1.38;;;;;;;22.65;63.76;101802.09;4965836;28;20514;-70
2022/07/29 11:31:46;;;;;;;1.98;0.82;;;;;;;22.61;64.09;101806.22;4967428;28;20485;-70